sensor_id;sensor_type;location;lat;lon;timestamp;P1;durP1;ratioP1;P2;durP2;ratioP2
73515;SDS011;61763;51.416;5.442;2024-02-26T00:00:30;5.07;;;1.08;;
73515;SDS011;61763;51.416;5.442;2024-02-26T00:02:55;2.25;;;0.68;;
73515;SDS011;61763;51.416;5.442;2024-02-26T00:05:21;2.70;;;1.55;;
73515;SDS011;61763;51.416;5.442;2024-02-26T00:07:46;2.88;;;0.90;;
73515;SDS011;61763;51.416;5.442;2024-02-26T00:10:12;2.53;;;1.35;;
73515;SDS011;61763;51.416;5.442;2024-02-26T00:12:38;2.17;;;0.57;;
73515;SDS011;61763;51.416;5.442;2024-02-26T00:15:05;4.70;;;1.55;;
73515;SDS011;61763;51.416;5.442;2024-02-26T00:17:31;2.80;;;1.10;;
73515;SDS011;61763;51.416;5.442;2024-02-26T00:19:56;3.58;;;0.93;;
73515;SDS011;61763;51.416;5.442;2024-02-26T00:22:22;3.70;;;1.40;;
73515;SDS011;61763;51.416;5.442;2024-02-26T00:24:47;1.58;;;0.30;;
73515;SDS011;61763;51.416;5.442;2024-02-26T00:27:13;2.22;;;0.52;;
73515;SDS011;61763;51.416;5.442;2024-02-26T00:29:38;1.77;;;0.63;;
73515;SDS011;61763;51.416;5.442;2024-02-26T00:32:04;3.22;;;1.20;;
73515;SDS011;61763;51.416;5.442;2024-02-26T00:34:29;2.67;;;0.30;;
73515;SDS011;61763;51.416;5.442;2024-02-26T00:36:55;3.42;;;1.60;;
73515;SDS011;61763;51.416;5.442;2024-02-26T00:39:21;2.22;;;0.47;;
73515;SDS011;61763;51.416;5.442;2024-02-26T00:41:46;4.60;;;2.10;;
73515;SDS011;61763;51.416;5.442;2024-02-26T00:44:12;2.97;;;1.02;;
73515;SDS011;61763;51.416;5.442;2024-02-26T00:46:38;4.35;;;0.65;;
73515;SDS011;61763;51.416;5.442;2024-02-26T00:49:03;3.38;;;0.80;;
73515;SDS011;61763;51.416;5.442;2024-02-26T00:51:29;3.00;;;1.65;;
73515;SDS011;61763;51.416;5.442;2024-02-26T00:53:54;2.70;;;0.52;;
73515;SDS011;61763;51.416;5.442;2024-02-26T00:56:21;4.82;;;1.02;;
73515;SDS011;61763;51.416;5.442;2024-02-26T00:58:46;4.78;;;0.98;;
73515;SDS011;61763;51.416;5.442;2024-02-26T01:01:11;6.78;;;2.00;;
73515;SDS011;61763;51.416;5.442;2024-02-26T01:03:37;2.55;;;0.82;;
73515;SDS011;61763;51.416;5.442;2024-02-26T01:06:02;4.20;;;1.83;;
73515;SDS011;61763;51.416;5.442;2024-02-26T01:08:28;3.58;;;1.48;;
73515;SDS011;61763;51.416;5.442;2024-02-26T01:10:53;3.85;;;2.15;;
73515;SDS011;61763;51.416;5.442;2024-02-26T01:13:19;4.75;;;1.58;;
73515;SDS011;61763;51.416;5.442;2024-02-26T01:15:44;3.95;;;1.48;;
73515;SDS011;61763;51.416;5.442;2024-02-26T01:18:09;3.85;;;0.85;;
73515;SDS011;61763;51.416;5.442;2024-02-26T01:20:36;5.90;;;1.42;;
73515;SDS011;61763;51.416;5.442;2024-02-26T01:23:03;4.32;;;1.75;;
73515;SDS011;61763;51.416;5.442;2024-02-26T01:25:28;6.13;;;2.63;;
73515;SDS011;61763;51.416;5.442;2024-02-26T01:27:54;4.00;;;1.13;;
73515;SDS011;61763;51.416;5.442;2024-02-26T01:30:19;5.35;;;1.88;;
73515;SDS011;61763;51.416;5.442;2024-02-26T01:32:45;5.05;;;1.80;;
73515;SDS011;61763;51.416;5.442;2024-02-26T01:35:10;5.28;;;3.08;;
73515;SDS011;61763;51.416;5.442;2024-02-26T01:40:03;25.73;;;14.85;;
73515;SDS011;61763;51.416;5.442;2024-02-26T01:42:30;24.52;;;13.70;;
73515;SDS011;61763;51.416;5.442;2024-02-26T01:44:57;19.13;;;9.88;;
73515;SDS011;61763;51.416;5.442;2024-02-26T01:47:22;7.38;;;2.42;;
73515;SDS011;61763;51.416;5.442;2024-02-26T01:49:51;6.72;;;2.58;;
73515;SDS011;61763;51.416;5.442;2024-02-26T01:52:17;3.90;;;1.30;;
73515;SDS011;61763;51.416;5.442;2024-02-26T01:54:44;3.97;;;1.55;;
73515;SDS011;61763;51.416;5.442;2024-02-26T01:57:10;3.90;;;1.27;;
73515;SDS011;61763;51.416;5.442;2024-02-26T01:59:37;1.95;;;1.27;;
73515;SDS011;61763;51.416;5.442;2024-02-26T02:02:05;4.78;;;1.27;;
73515;SDS011;61763;51.416;5.442;2024-02-26T02:04:34;4.10;;;1.50;;
73515;SDS011;61763;51.416;5.442;2024-02-26T02:07:00;5.22;;;2.00;;
73515;SDS011;61763;51.416;5.442;2024-02-26T02:09:27;6.55;;;2.13;;
73515;SDS011;61763;51.416;5.442;2024-02-26T02:11:53;4.47;;;1.88;;
73515;SDS011;61763;51.416;5.442;2024-02-26T02:14:19;5.45;;;2.47;;
73515;SDS011;61763;51.416;5.442;2024-02-26T02:16:44;4.22;;;1.08;;
73515;SDS011;61763;51.416;5.442;2024-02-26T02:19:10;5.57;;;2.78;;
73515;SDS011;61763;51.416;5.442;2024-02-26T02:21:36;4.35;;;1.75;;
73515;SDS011;61763;51.416;5.442;2024-02-26T02:24:01;7.88;;;2.00;;
73515;SDS011;61763;51.416;5.442;2024-02-26T02:26:26;5.07;;;1.77;;
73515;SDS011;61763;51.416;5.442;2024-02-26T02:28:52;5.88;;;2.33;;
73515;SDS011;61763;51.416;5.442;2024-02-26T02:31:18;4.38;;;1.90;;
73515;SDS011;61763;51.416;5.442;2024-02-26T02:33:44;5.72;;;2.25;;
73515;SDS011;61763;51.416;5.442;2024-02-26T02:36:09;5.32;;;1.95;;
73515;SDS011;61763;51.416;5.442;2024-02-26T02:38:38;4.85;;;2.63;;
73515;SDS011;61763;51.416;5.442;2024-02-26T02:41:15;3.40;;;1.98;;
73515;SDS011;61763;51.416;5.442;2024-02-26T02:43:40;6.25;;;2.92;;
73515;SDS011;61763;51.416;5.442;2024-02-26T02:46:06;5.80;;;2.53;;
73515;SDS011;61763;51.416;5.442;2024-02-26T02:48:31;4.63;;;1.75;;
73515;SDS011;61763;51.416;5.442;2024-02-26T02:50:56;4.25;;;2.20;;
73515;SDS011;61763;51.416;5.442;2024-02-26T02:53:23;4.18;;;1.38;;
73515;SDS011;61763;51.416;5.442;2024-02-26T02:55:48;5.18;;;1.90;;
73515;SDS011;61763;51.416;5.442;2024-02-26T02:58:14;6.63;;;2.15;;
73515;SDS011;61763;51.416;5.442;2024-02-26T03:00:39;6.40;;;2.38;;
73515;SDS011;61763;51.416;5.442;2024-02-26T03:03:04;5.32;;;3.05;;
73515;SDS011;61763;51.416;5.442;2024-02-26T03:05:30;4.28;;;1.88;;
73515;SDS011;61763;51.416;5.442;2024-02-26T03:07:55;4.30;;;2.25;;
73515;SDS011;61763;51.416;5.442;2024-02-26T03:10:20;3.80;;;1.60;;
73515;SDS011;61763;51.416;5.442;2024-02-26T03:12:46;10.40;;;3.33;;
73515;SDS011;61763;51.416;5.442;2024-02-26T03:15:11;5.68;;;2.15;;
73515;SDS011;61763;51.416;5.442;2024-02-26T03:17:38;6.00;;;3.45;;
73515;SDS011;61763;51.416;5.442;2024-02-26T03:20:04;6.65;;;2.05;;
73515;SDS011;61763;51.416;5.442;2024-02-26T03:22:30;6.78;;;3.03;;
73515;SDS011;61763;51.416;5.442;2024-02-26T03:24:57;5.82;;;3.20;;
73515;SDS011;61763;51.416;5.442;2024-02-26T03:27:22;1.95;;;0.80;;
73515;SDS011;61763;51.416;5.442;2024-02-26T03:29:48;4.72;;;2.05;;
73515;SDS011;61763;51.416;5.442;2024-02-26T03:32:14;3.53;;;1.70;;
73515;SDS011;61763;51.416;5.442;2024-02-26T03:34:39;6.00;;;2.30;;
73515;SDS011;61763;51.416;5.442;2024-02-26T03:37:05;5.93;;;2.08;;
73515;SDS011;61763;51.416;5.442;2024-02-26T03:39:31;3.78;;;1.90;;
73515;SDS011;61763;51.416;5.442;2024-02-26T03:41:57;4.80;;;2.53;;
73515;SDS011;61763;51.416;5.442;2024-02-26T03:44:23;4.40;;;1.75;;
73515;SDS011;61763;51.416;5.442;2024-02-26T03:46:48;7.38;;;2.60;;
73515;SDS011;61763;51.416;5.442;2024-02-26T03:49:14;3.33;;;2.00;;
73515;SDS011;61763;51.416;5.442;2024-02-26T03:51:39;6.50;;;1.92;;
73515;SDS011;61763;51.416;5.442;2024-02-26T03:54:06;5.13;;;1.70;;
73515;SDS011;61763;51.416;5.442;2024-02-26T03:56:32;2.95;;;1.10;;
73515;SDS011;61763;51.416;5.442;2024-02-26T03:58:57;3.92;;;1.42;;
73515;SDS011;61763;51.416;5.442;2024-02-26T04:01:24;6.65;;;1.75;;
73515;SDS011;61763;51.416;5.442;2024-02-26T04:03:50;4.28;;;2.10;;
73515;SDS011;61763;51.416;5.442;2024-02-26T04:06:15;2.63;;;0.98;;
73515;SDS011;61763;51.416;5.442;2024-02-26T04:08:43;4.18;;;1.85;;
73515;SDS011;61763;51.416;5.442;2024-02-26T04:11:08;3.22;;;0.77;;
73515;SDS011;61763;51.416;5.442;2024-02-26T04:13:34;6.15;;;2.00;;
73515;SDS011;61763;51.416;5.442;2024-02-26T04:16:00;5.78;;;2.67;;
73515;SDS011;61763;51.416;5.442;2024-02-26T04:18:27;7.38;;;2.97;;
73515;SDS011;61763;51.416;5.442;2024-02-26T04:20:53;3.65;;;1.40;;
73515;SDS011;61763;51.416;5.442;2024-02-26T04:23:20;2.20;;;0.98;;
73515;SDS011;61763;51.416;5.442;2024-02-26T04:25:45;3.95;;;1.80;;
73515;SDS011;61763;51.416;5.442;2024-02-26T04:28:12;5.93;;;2.35;;
73515;SDS011;61763;51.416;5.442;2024-02-26T04:30:37;5.80;;;2.65;;
73515;SDS011;61763;51.416;5.442;2024-02-26T04:33:03;3.03;;;1.45;;
73515;SDS011;61763;51.416;5.442;2024-02-26T04:35:29;4.63;;;2.88;;
73515;SDS011;61763;51.416;5.442;2024-02-26T04:37:54;4.22;;;1.73;;
73515;SDS011;61763;51.416;5.442;2024-02-26T04:40:19;5.43;;;2.08;;
73515;SDS011;61763;51.416;5.442;2024-02-26T04:42:45;5.35;;;2.60;;
73515;SDS011;61763;51.416;5.442;2024-02-26T04:45:10;6.88;;;2.25;;
73515;SDS011;61763;51.416;5.442;2024-02-26T04:47:35;4.38;;;1.95;;
73515;SDS011;61763;51.416;5.442;2024-02-26T04:50:01;6.13;;;1.85;;
73515;SDS011;61763;51.416;5.442;2024-02-26T04:52:26;5.53;;;1.88;;
73515;SDS011;61763;51.416;5.442;2024-02-26T04:54:53;5.80;;;1.75;;
73515;SDS011;61763;51.416;5.442;2024-02-26T04:57:20;4.85;;;2.78;;
73515;SDS011;61763;51.416;5.442;2024-02-26T04:59:46;7.30;;;2.85;;
73515;SDS011;61763;51.416;5.442;2024-02-26T05:02:12;4.45;;;2.38;;
73515;SDS011;61763;51.416;5.442;2024-02-26T05:04:39;5.35;;;2.08;;
73515;SDS011;61763;51.416;5.442;2024-02-26T05:07:04;4.00;;;2.20;;
73515;SDS011;61763;51.416;5.442;2024-02-26T05:09:30;4.30;;;1.98;;
73515;SDS011;61763;51.416;5.442;2024-02-26T05:11:55;4.55;;;2.03;;
73515;SDS011;61763;51.416;5.442;2024-02-26T05:14:20;5.00;;;1.80;;
73515;SDS011;61763;51.416;5.442;2024-02-26T05:16:46;5.20;;;2.63;;
73515;SDS011;61763;51.416;5.442;2024-02-26T05:19:12;6.35;;;3.47;;
73515;SDS011;61763;51.416;5.442;2024-02-26T05:21:38;4.10;;;2.25;;
73515;SDS011;61763;51.416;5.442;2024-02-26T05:24:04;3.10;;;1.33;;
73515;SDS011;61763;51.416;5.442;2024-02-26T05:26:29;4.68;;;2.45;;
73515;SDS011;61763;51.416;5.442;2024-02-26T05:28:55;3.05;;;1.27;;
73515;SDS011;61763;51.416;5.442;2024-02-26T05:31:24;3.83;;;1.50;;
73515;SDS011;61763;51.416;5.442;2024-02-26T05:33:50;6.03;;;2.30;;
73515;SDS011;61763;51.416;5.442;2024-02-26T05:36:18;2.20;;;0.75;;
73515;SDS011;61763;51.416;5.442;2024-02-26T05:38:46;5.20;;;1.48;;
73515;SDS011;61763;51.416;5.442;2024-02-26T05:41:11;6.85;;;1.65;;
73515;SDS011;61763;51.416;5.442;2024-02-26T05:43:37;4.72;;;2.90;;
73515;SDS011;61763;51.416;5.442;2024-02-26T05:46:02;4.22;;;1.17;;
73515;SDS011;61763;51.416;5.442;2024-02-26T05:48:28;4.90;;;1.55;;
73515;SDS011;61763;51.416;5.442;2024-02-26T05:50:53;2.80;;;1.40;;
73515;SDS011;61763;51.416;5.442;2024-02-26T05:53:19;4.38;;;2.88;;
73515;SDS011;61763;51.416;5.442;2024-02-26T05:55:44;2.13;;;1.38;;
73515;SDS011;61763;51.416;5.442;2024-02-26T05:58:09;4.28;;;1.98;;
73515;SDS011;61763;51.416;5.442;2024-02-26T06:00:35;2.45;;;0.95;;
73515;SDS011;61763;51.416;5.442;2024-02-26T06:03:01;2.75;;;1.00;;
73515;SDS011;61763;51.416;5.442;2024-02-26T06:05:27;3.13;;;1.60;;
73515;SDS011;61763;51.416;5.442;2024-02-26T06:07:52;3.13;;;0.80;;
73515;SDS011;61763;51.416;5.442;2024-02-26T06:10:18;3.42;;;1.48;;
73515;SDS011;61763;51.416;5.442;2024-02-26T06:12:46;3.95;;;1.50;;
73515;SDS011;61763;51.416;5.442;2024-02-26T06:15:11;4.75;;;1.70;;
73515;SDS011;61763;51.416;5.442;2024-02-26T06:17:37;2.53;;;0.75;;
73515;SDS011;61763;51.416;5.442;2024-02-26T06:20:02;3.60;;;1.00;;
73515;SDS011;61763;51.416;5.442;2024-02-26T06:22:30;4.30;;;2.47;;
73515;SDS011;61763;51.416;5.442;2024-02-26T06:24:55;4.50;;;2.45;;
73515;SDS011;61763;51.416;5.442;2024-02-26T06:27:21;3.95;;;2.05;;
73515;SDS011;61763;51.416;5.442;2024-02-26T06:29:46;3.13;;;1.33;;
73515;SDS011;61763;51.416;5.442;2024-02-26T06:32:12;4.30;;;1.67;;
73515;SDS011;61763;51.416;5.442;2024-02-26T06:34:37;4.50;;;1.88;;
73515;SDS011;61763;51.416;5.442;2024-02-26T06:37:05;4.22;;;2.33;;
73515;SDS011;61763;51.416;5.442;2024-02-26T06:39:30;4.30;;;1.95;;
73515;SDS011;61763;51.416;5.442;2024-02-26T06:41:55;4.25;;;2.05;;
73515;SDS011;61763;51.416;5.442;2024-02-26T06:44:25;4.10;;;2.35;;
73515;SDS011;61763;51.416;5.442;2024-02-26T06:46:51;6.75;;;2.42;;
73515;SDS011;61763;51.416;5.442;2024-02-26T06:49:17;5.10;;;2.10;;
73515;SDS011;61763;51.416;5.442;2024-02-26T06:51:43;5.80;;;2.83;;
73515;SDS011;61763;51.416;5.442;2024-02-26T06:54:09;4.07;;;1.92;;
73515;SDS011;61763;51.416;5.442;2024-02-26T06:56:34;4.90;;;2.63;;
73515;SDS011;61763;51.416;5.442;2024-02-26T07:05:12;4.20;;;1.67;;
73515;SDS011;61763;51.416;5.442;2024-02-26T07:07:37;6.25;;;2.55;;
73515;SDS011;61763;51.416;5.442;2024-02-26T07:20:08;5.90;;;3.45;;
73515;SDS011;61763;51.416;5.442;2024-02-26T07:22:34;6.10;;;3.47;;
73515;SDS011;61763;51.416;5.442;2024-02-26T07:25:00;3.65;;;1.45;;
73515;SDS011;61763;51.416;5.442;2024-02-26T07:27:25;3.50;;;1.52;;
73515;SDS011;61763;51.416;5.442;2024-02-26T07:29:50;7.07;;;3.53;;
73515;SDS011;61763;51.416;5.442;2024-02-26T07:32:16;5.45;;;3.88;;
73515;SDS011;61763;51.416;5.442;2024-02-26T07:34:43;8.20;;;4.50;;
73515;SDS011;61763;51.416;5.442;2024-02-26T07:37:09;8.43;;;3.55;;
73515;SDS011;61763;51.416;5.442;2024-02-26T07:39:35;7.88;;;3.90;;
73515;SDS011;61763;51.416;5.442;2024-02-26T07:42:01;8.35;;;4.10;;
73515;SDS011;61763;51.416;5.442;2024-02-26T07:44:27;5.03;;;2.42;;
73515;SDS011;61763;51.416;5.442;2024-02-26T07:46:52;6.95;;;3.20;;
73515;SDS011;61763;51.416;5.442;2024-02-26T07:49:18;10.57;;;4.22;;
73515;SDS011;61763;51.416;5.442;2024-02-26T07:51:44;7.78;;;3.95;;
73515;SDS011;61763;51.416;5.442;2024-02-26T07:54:09;6.00;;;3.28;;
73515;SDS011;61763;51.416;5.442;2024-02-26T07:56:34;4.97;;;2.97;;
73515;SDS011;61763;51.416;5.442;2024-02-26T07:59:00;4.95;;;2.47;;
73515;SDS011;61763;51.416;5.442;2024-02-26T08:01:25;7.82;;;3.60;;
73515;SDS011;61763;51.416;5.442;2024-02-26T08:03:52;10.27;;;3.40;;
73515;SDS011;61763;51.416;5.442;2024-02-26T08:06:18;4.85;;;2.33;;
73515;SDS011;61763;51.416;5.442;2024-02-26T08:08:43;8.45;;;4.35;;
73515;SDS011;61763;51.416;5.442;2024-02-26T08:11:09;7.80;;;3.50;;
73515;SDS011;61763;51.416;5.442;2024-02-26T08:13:34;6.32;;;3.50;;
73515;SDS011;61763;51.416;5.442;2024-02-26T08:16:00;8.35;;;4.38;;
73515;SDS011;61763;51.416;5.442;2024-02-26T08:18:26;8.25;;;3.72;;
73515;SDS011;61763;51.416;5.442;2024-02-26T08:20:51;5.25;;;3.28;;
73515;SDS011;61763;51.416;5.442;2024-02-26T08:23:17;5.78;;;2.58;;
73515;SDS011;61763;51.416;5.442;2024-02-26T08:25:42;5.65;;;2.83;;
73515;SDS011;61763;51.416;5.442;2024-02-26T08:28:08;9.98;;;3.33;;
73515;SDS011;61763;51.416;5.442;2024-02-26T08:30:33;3.97;;;1.70;;
73515;SDS011;61763;51.416;5.442;2024-02-26T08:32:59;6.53;;;3.25;;
73515;SDS011;61763;51.416;5.442;2024-02-26T08:35:24;7.40;;;4.20;;
73515;SDS011;61763;51.416;5.442;2024-02-26T08:37:50;3.30;;;1.80;;
73515;SDS011;61763;51.416;5.442;2024-02-26T08:40:15;5.00;;;2.55;;
73515;SDS011;61763;51.416;5.442;2024-02-26T08:42:41;4.90;;;3.38;;
73515;SDS011;61763;51.416;5.442;2024-02-26T08:45:07;4.50;;;1.83;;
73515;SDS011;61763;51.416;5.442;2024-02-26T08:47:33;7.13;;;2.70;;
73515;SDS011;61763;51.416;5.442;2024-02-26T08:49:58;6.32;;;3.47;;
73515;SDS011;61763;51.416;5.442;2024-02-26T08:52:24;8.32;;;3.03;;
73515;SDS011;61763;51.416;5.442;2024-02-26T08:54:49;7.82;;;3.53;;
73515;SDS011;61763;51.416;5.442;2024-02-26T08:57:15;5.82;;;3.75;;
73515;SDS011;61763;51.416;5.442;2024-02-26T08:59:40;5.88;;;3.75;;
73515;SDS011;61763;51.416;5.442;2024-02-26T09:02:06;6.60;;;3.20;;
73515;SDS011;61763;51.416;5.442;2024-02-26T09:04:33;7.72;;;3.30;;
73515;SDS011;61763;51.416;5.442;2024-02-26T09:06:59;4.45;;;2.10;;
73515;SDS011;61763;51.416;5.442;2024-02-26T09:09:24;6.45;;;2.40;;
73515;SDS011;61763;51.416;5.442;2024-02-26T09:11:51;8.52;;;3.78;;
73515;SDS011;61763;51.416;5.442;2024-02-26T09:14:17;6.13;;;2.83;;
73515;SDS011;61763;51.416;5.442;2024-02-26T09:16:43;4.80;;;2.35;;
73515;SDS011;61763;51.416;5.442;2024-02-26T09:19:08;7.88;;;3.58;;
73515;SDS011;61763;51.416;5.442;2024-02-26T09:21:34;8.02;;;4.38;;
73515;SDS011;61763;51.416;5.442;2024-02-26T09:23:59;6.97;;;4.03;;
73515;SDS011;61763;51.416;5.442;2024-02-26T09:26:24;8.48;;;5.05;;
73515;SDS011;61763;51.416;5.442;2024-02-26T09:28:50;7.13;;;3.75;;
73515;SDS011;61763;51.416;5.442;2024-02-26T09:31:17;7.35;;;3.35;;
73515;SDS011;61763;51.416;5.442;2024-02-26T09:33:43;7.55;;;4.40;;
73515;SDS011;61763;51.416;5.442;2024-02-26T09:36:08;10.40;;;4.00;;
73515;SDS011;61763;51.416;5.442;2024-02-26T09:38:35;7.75;;;3.80;;
73515;SDS011;61763;51.416;5.442;2024-02-26T09:41:03;8.30;;;4.25;;
73515;SDS011;61763;51.416;5.442;2024-02-26T09:43:34;11.45;;;4.72;;
73515;SDS011;61763;51.416;5.442;2024-02-26T09:46:01;7.55;;;4.25;;
73515;SDS011;61763;51.416;5.442;2024-02-26T09:48:28;10.85;;;4.75;;
73515;SDS011;61763;51.416;5.442;2024-02-26T09:50:54;10.93;;;4.32;;
73515;SDS011;61763;51.416;5.442;2024-02-26T09:53:20;8.82;;;5.15;;
73515;SDS011;61763;51.416;5.442;2024-02-26T09:55:46;12.43;;;5.93;;
73515;SDS011;61763;51.416;5.442;2024-02-26T09:58:12;5.57;;;2.45;;
73515;SDS011;61763;51.416;5.442;2024-02-26T10:00:43;14.48;;;6.57;;
73515;SDS011;61763;51.416;5.442;2024-02-26T10:03:18;7.82;;;4.22;;
73515;SDS011;61763;51.416;5.442;2024-02-26T10:05:48;6.35;;;3.05;;
73515;SDS011;61763;51.416;5.442;2024-02-26T10:08:15;7.65;;;3.85;;
73515;SDS011;61763;51.416;5.442;2024-02-26T10:10:43;7.72;;;4.93;;
73515;SDS011;61763;51.416;5.442;2024-02-26T10:13:09;7.78;;;4.20;;
73515;SDS011;61763;51.416;5.442;2024-02-26T10:15:37;6.97;;;3.50;;
73515;SDS011;61763;51.416;5.442;2024-02-26T10:18:05;10.27;;;6.03;;
73515;SDS011;61763;51.416;5.442;2024-02-26T10:20:31;7.20;;;3.15;;
73515;SDS011;61763;51.416;5.442;2024-02-26T10:22:57;10.05;;;5.35;;
73515;SDS011;61763;51.416;5.442;2024-02-26T10:25:23;8.30;;;4.13;;
73515;SDS011;61763;51.416;5.442;2024-02-26T10:27:48;10.07;;;3.60;;
73515;SDS011;61763;51.416;5.442;2024-02-26T10:30:17;9.50;;;5.25;;
73515;SDS011;61763;51.416;5.442;2024-02-26T10:32:45;10.45;;;5.28;;
73515;SDS011;61763;51.416;5.442;2024-02-26T10:35:12;6.88;;;4.15;;
73515;SDS011;61763;51.416;5.442;2024-02-26T10:37:39;8.80;;;4.72;;
73515;SDS011;61763;51.416;5.442;2024-02-26T10:40:05;9.18;;;4.43;;
73515;SDS011;61763;51.416;5.442;2024-02-26T10:42:31;8.77;;;4.07;;
73515;SDS011;61763;51.416;5.442;2024-02-26T10:44:57;7.57;;;4.05;;
73515;SDS011;61763;51.416;5.442;2024-02-26T10:47:23;9.15;;;4.63;;
73515;SDS011;61763;51.416;5.442;2024-02-26T10:49:50;8.80;;;4.28;;
73515;SDS011;61763;51.416;5.442;2024-02-26T10:52:15;13.85;;;6.85;;
73515;SDS011;61763;51.416;5.442;2024-02-26T10:54:44;6.40;;;3.47;;
73515;SDS011;61763;51.416;5.442;2024-02-26T10:57:12;8.30;;;4.93;;
73515;SDS011;61763;51.416;5.442;2024-02-26T10:59:39;12.23;;;5.65;;
73515;SDS011;61763;51.416;5.442;2024-02-26T11:02:07;10.18;;;5.75;;
73515;SDS011;61763;51.416;5.442;2024-02-26T11:04:34;9.55;;;5.75;;
73515;SDS011;61763;51.416;5.442;2024-02-26T11:07:01;9.55;;;5.50;;
73515;SDS011;61763;51.416;5.442;2024-02-26T11:09:26;9.25;;;5.00;;
73515;SDS011;61763;51.416;5.442;2024-02-26T11:11:52;12.95;;;7.65;;
73515;SDS011;61763;51.416;5.442;2024-02-26T11:14:20;10.65;;;5.22;;
73515;SDS011;61763;51.416;5.442;2024-02-26T11:16:45;12.77;;;6.90;;
73515;SDS011;61763;51.416;5.442;2024-02-26T11:19:12;14.23;;;9.02;;
73515;SDS011;61763;51.416;5.442;2024-02-26T11:21:39;13.27;;;7.65;;
73515;SDS011;61763;51.416;5.442;2024-02-26T11:24:07;11.63;;;5.68;;
73515;SDS011;61763;51.416;5.442;2024-02-26T11:26:36;10.18;;;5.45;;
73515;SDS011;61763;51.416;5.442;2024-02-26T11:29:08;9.85;;;5.47;;
73515;SDS011;61763;51.416;5.442;2024-02-26T11:31:36;8.95;;;4.65;;
73515;SDS011;61763;51.416;5.442;2024-02-26T11:34:03;11.85;;;7.13;;
73515;SDS011;61763;51.416;5.442;2024-02-26T11:36:28;12.98;;;7.32;;
73515;SDS011;61763;51.416;5.442;2024-02-26T11:38:54;17.42;;;7.70;;
73515;SDS011;61763;51.416;5.442;2024-02-26T11:41:20;9.90;;;5.05;;
73515;SDS011;61763;51.416;5.442;2024-02-26T11:43:52;16.17;;;9.32;;
73515;SDS011;61763;51.416;5.442;2024-02-26T11:46:38;15.15;;;8.52;;
73515;SDS011;61763;51.416;5.442;2024-02-26T11:51:52;5.07;;;2.35;;
73515;SDS011;61763;51.416;5.442;2024-02-26T11:57:03;14.18;;;5.78;;
73515;SDS011;61763;51.416;5.442;2024-02-26T11:59:38;14.57;;;8.85;;
73515;SDS011;61763;51.416;5.442;2024-02-26T12:02:04;13.98;;;7.40;;
73515;SDS011;61763;51.416;5.442;2024-02-26T12:04:30;13.65;;;6.30;;
73515;SDS011;61763;51.416;5.442;2024-02-26T12:06:56;16.13;;;8.35;;
73515;SDS011;61763;51.416;5.442;2024-02-26T12:09:31;14.27;;;8.48;;
73515;SDS011;61763;51.416;5.442;2024-02-26T12:12:04;15.85;;;8.38;;
73515;SDS011;61763;51.416;5.442;2024-02-26T12:14:32;14.32;;;7.10;;
73515;SDS011;61763;51.416;5.442;2024-02-26T12:16:58;16.13;;;6.70;;
73515;SDS011;61763;51.416;5.442;2024-02-26T12:19:24;16.15;;;7.00;;
73515;SDS011;61763;51.416;5.442;2024-02-26T12:21:53;15.98;;;8.05;;
73515;SDS011;61763;51.416;5.442;2024-02-26T12:24:21;15.50;;;6.97;;
73515;SDS011;61763;51.416;5.442;2024-02-26T12:26:47;16.08;;;7.93;;
73515;SDS011;61763;51.416;5.442;2024-02-26T12:29:12;15.55;;;6.28;;
73515;SDS011;61763;51.416;5.442;2024-02-26T12:31:39;16.50;;;6.53;;
73515;SDS011;61763;51.416;5.442;2024-02-26T12:34:06;18.40;;;6.43;;
73515;SDS011;61763;51.416;5.442;2024-02-26T12:36:32;15.77;;;8.13;;
73515;SDS011;61763;51.416;5.442;2024-02-26T12:38:59;19.23;;;7.75;;
73515;SDS011;61763;51.416;5.442;2024-02-26T12:41:27;14.32;;;6.65;;
73515;SDS011;61763;51.416;5.442;2024-02-26T12:43:53;15.80;;;6.43;;
73515;SDS011;61763;51.416;5.442;2024-02-26T12:46:18;19.38;;;7.57;;
73515;SDS011;61763;51.416;5.442;2024-02-26T12:48:43;19.98;;;8.07;;
73515;SDS011;61763;51.416;5.442;2024-02-26T12:51:10;21.77;;;9.07;;
73515;SDS011;61763;51.416;5.442;2024-02-26T12:53:37;20.25;;;8.65;;
73515;SDS011;61763;51.416;5.442;2024-02-26T12:56:05;24.77;;;10.63;;
73515;SDS011;61763;51.416;5.442;2024-02-26T12:58:32;22.80;;;9.98;;
73515;SDS011;61763;51.416;5.442;2024-02-26T13:00:59;22.42;;;10.20;;
73515;SDS011;61763;51.416;5.442;2024-02-26T13:03:25;21.95;;;7.60;;
73515;SDS011;61763;51.416;5.442;2024-02-26T13:05:51;23.55;;;11.63;;
73515;SDS011;61763;51.416;5.442;2024-02-26T13:08:18;24.33;;;9.77;;
73515;SDS011;61763;51.416;5.442;2024-02-26T13:10:46;25.67;;;9.57;;
73515;SDS011;61763;51.416;5.442;2024-02-26T13:13:16;14.93;;;7.65;;
73515;SDS011;61763;51.416;5.442;2024-02-26T13:15:42;23.10;;;9.95;;
73515;SDS011;61763;51.416;5.442;2024-02-26T13:18:11;26.17;;;9.57;;
73515;SDS011;61763;51.416;5.442;2024-02-26T13:20:41;23.27;;;9.43;;
73515;SDS011;61763;51.416;5.442;2024-02-26T13:23:08;28.75;;;11.90;;
73515;SDS011;61763;51.416;5.442;2024-02-26T13:25:37;23.77;;;10.73;;
73515;SDS011;61763;51.416;5.442;2024-02-26T13:28:13;18.85;;;8.02;;
73515;SDS011;61763;51.416;5.442;2024-02-26T13:30:38;27.67;;;12.18;;
73515;SDS011;61763;51.416;5.442;2024-02-26T13:33:11;24.17;;;8.75;;
73515;SDS011;61763;51.416;5.442;2024-02-26T13:35:38;22.95;;;8.55;;
73515;SDS011;61763;51.416;5.442;2024-02-26T13:38:04;26.10;;;10.48;;
73515;SDS011;61763;51.416;5.442;2024-02-26T13:40:33;19.98;;;8.02;;
73515;SDS011;61763;51.416;5.442;2024-02-26T13:43:00;23.98;;;8.85;;
73515;SDS011;61763;51.416;5.442;2024-02-26T13:45:25;18.63;;;8.52;;
73515;SDS011;61763;51.416;5.442;2024-02-26T13:47:51;18.30;;;8.63;;
73515;SDS011;61763;51.416;5.442;2024-02-26T13:50:16;19.67;;;8.45;;
73515;SDS011;61763;51.416;5.442;2024-02-26T13:52:46;16.92;;;7.70;;
73515;SDS011;61763;51.416;5.442;2024-02-26T13:55:12;18.63;;;7.93;;
73515;SDS011;61763;51.416;5.442;2024-02-26T13:57:39;19.25;;;6.78;;
73515;SDS011;61763;51.416;5.442;2024-02-26T14:00:05;21.13;;;9.00;;
73515;SDS011;61763;51.416;5.442;2024-02-26T14:02:31;22.45;;;8.90;;
73515;SDS011;61763;51.416;5.442;2024-02-26T14:04:56;18.00;;;8.23;;
73515;SDS011;61763;51.416;5.442;2024-02-26T14:07:22;18.73;;;7.50;;
73515;SDS011;61763;51.416;5.442;2024-02-26T14:09:47;20.13;;;7.80;;
73515;SDS011;61763;51.416;5.442;2024-02-26T14:12:13;21.73;;;8.55;;
73515;SDS011;61763;51.416;5.442;2024-02-26T14:14:38;18.77;;;7.10;;
73515;SDS011;61763;51.416;5.442;2024-02-26T14:17:05;15.77;;;7.35;;
73515;SDS011;61763;51.416;5.442;2024-02-26T14:19:31;16.48;;;6.25;;
73515;SDS011;61763;51.416;5.442;2024-02-26T14:21:57;16.63;;;7.72;;
73515;SDS011;61763;51.416;5.442;2024-02-26T14:24:22;17.15;;;7.93;;
73515;SDS011;61763;51.416;5.442;2024-02-26T14:26:47;22.95;;;7.68;;
73515;SDS011;61763;51.416;5.442;2024-02-26T14:29:13;17.10;;;7.43;;
73515;SDS011;61763;51.416;5.442;2024-02-26T14:31:39;12.80;;;5.25;;
73515;SDS011;61763;51.416;5.442;2024-02-26T14:34:04;13.75;;;5.70;;
73515;SDS011;61763;51.416;5.442;2024-02-26T14:36:29;15.00;;;6.28;;
73515;SDS011;61763;51.416;5.442;2024-02-26T14:38:55;13.57;;;6.13;;
73515;SDS011;61763;51.416;5.442;2024-02-26T14:41:20;18.52;;;8.30;;
73515;SDS011;61763;51.416;5.442;2024-02-26T14:43:46;19.83;;;7.03;;
73515;SDS011;61763;51.416;5.442;2024-02-26T14:46:11;16.27;;;7.22;;
73515;SDS011;61763;51.416;5.442;2024-02-26T14:48:36;14.95;;;5.93;;
73515;SDS011;61763;51.416;5.442;2024-02-26T14:51:02;19.20;;;7.63;;
73515;SDS011;61763;51.416;5.442;2024-02-26T14:53:30;14.75;;;5.97;;
73515;SDS011;61763;51.416;5.442;2024-02-26T14:55:57;10.00;;;4.18;;
73515;SDS011;61763;51.416;5.442;2024-02-26T14:58:22;13.23;;;6.50;;
73515;SDS011;61763;51.416;5.442;2024-02-26T15:00:47;13.07;;;5.88;;